Terminal Aerodrome Forecast
Issued by NWS

Home | Current Version | Previous Version | Text Only | Print | Product List | Glossary On
Versions: 1 2 3 4 5 6 7 8 9 10 11 12 13 14 15 16 17 18 19 20
000
FTUS41 KOKX 130523
TAFSWF
TAF
KSWF 130523Z 1306/1412 26008KT P6SM BKN050
     FM130700 27010KT P6SM SCT015 BKN035
     FM131000 28012G20KT P6SM SCT035 BKN070
     FM131200 30017G26KT P6SM SCT050 SCT100
     FM131400 30023G32KT P6SM BKN050
     FM140400 31020G29KT P6SM SCT040
      AMD NOT SKED=

USA.gov is the U.S. government's official web portal to all federal, state and local government web resources and services.